createdAt,value
2018-12-29T00:02:56.573Z,17.40
2018-12-29T00:09:05.039Z,19.57
2018-12-29T00:12:06.740Z,18.23
2018-12-29T00:15:08.796Z,18.12
2018-12-29T00:18:10.739Z,19.02
2018-12-29T00:21:11.674Z,16.82
2018-12-29T00:24:14.966Z,15.70
2018-12-29T00:27:16.579Z,17.75
2018-12-29T00:30:17.648Z,19.02
2018-12-29T00:33:18.763Z,15.88
2018-12-29T00:39:27.031Z,17.67
2018-12-29T00:42:28.755Z,18.92
2018-12-29T00:45:29.767Z,15.00
2018-12-29T00:48:31.007Z,17.23
2018-12-29T00:51:32.499Z,15.38
2018-12-29T00:54:33.563Z,16.37
2018-12-29T00:57:35.182Z,16.55
2018-12-29T01:00:41.070Z,16.77
2018-12-29T01:03:42.758Z,18.70
2018-12-29T01:09:51.319Z,17.15
2018-12-29T01:12:52.490Z,16.48
2018-12-29T01:15:53.730Z,16.55
2018-12-29T01:18:55.370Z,17.73
2018-12-29T01:21:56.787Z,15.72
2018-12-29T01:24:58.607Z,19.10
2018-12-29T01:27:59.859Z,15.58
2018-12-29T01:31:01.549Z,17.95
2018-12-29T01:34:03.604Z,17.65
2018-12-29T01:40:12.280Z,15.50
2018-12-29T01:43:13.824Z,16.25
2018-12-29T01:46:15.642Z,16.50
2018-12-29T01:49:17.162Z,14.18
2018-12-29T01:52:18.208Z,14.68
2018-12-29T01:55:18.243Z,16.00
2018-12-29T01:58:19.596Z,16.57
2018-12-29T02:01:21.338Z,14.43
2018-12-29T02:04:22.720Z,16.05
2018-12-29T02:10:30.895Z,15.25
2018-12-29T02:13:32.098Z,15.00
2018-12-29T02:16:33.040Z,15.28
2018-12-29T02:19:34.010Z,14.75
2018-12-29T02:22:35.764Z,19.55
2018-12-29T02:25:36.883Z,14.10
2018-12-29T02:28:38.539Z,13.65
2018-12-29T02:31:40.177Z,14.15
2018-12-29T02:34:40.484Z,11.45
2018-12-29T02:40:48.694Z,12.00
2018-12-29T02:43:51.161Z,12.20
2018-12-29T02:46:52.842Z,13.62
2018-12-29T02:49:54.110Z,12.60
2018-12-29T02:52:55.348Z,13.32
2018-12-29T02:55:55.291Z,11.85
2018-12-29T02:58:56.962Z,13.77
2018-12-29T03:01:58.334Z,12.60
2018-12-29T03:04:59.652Z,12.20
2018-12-29T03:11:08.067Z,12.90
2018-12-29T03:14:10.015Z,13.20
2018-12-29T03:17:11.319Z,12.27
2018-12-29T03:20:13.344Z,15.40
2018-12-29T03:23:14.355Z,13.53
2018-12-29T03:26:16.019Z,15.30
2018-12-29T03:29:17.738Z,14.85
2018-12-29T03:32:17.573Z,12.55
2018-12-29T03:42:05.680Z,15.85
2018-12-29T03:45:07.102Z,13.68
2018-12-29T03:48:08.060Z,14.50
2018-12-29T03:51:09.069Z,14.85
2018-12-29T03:54:10.107Z,13.60
2018-12-29T03:57:11.402Z,13.40
2018-12-29T04:00:12.801Z,14.40
2018-12-29T04:03:14.607Z,16.12
2018-12-29T04:06:16.270Z,13.50
2018-12-29T04:12:24.974Z,15.58
2018-12-29T04:15:26.160Z,13.98
2018-12-29T04:18:27.251Z,15.28
2018-12-29T04:21:28.888Z,16.40
2018-12-29T04:24:30.080Z,14.98
2018-12-29T04:27:31.529Z,15.90
2018-12-29T04:30:33.231Z,15.00
2018-12-29T04:33:34.866Z,15.48
2018-12-29T04:36:36.371Z,15.08
2018-12-29T04:42:44.767Z,15.68
2018-12-29T04:45:45.907Z,16.05
2018-12-29T04:48:46.866Z,14.18
2018-12-29T04:51:48.566Z,17.40
2018-12-29T04:54:50.237Z,17.90
2018-12-29T04:57:52.184Z,18.80
2018-12-29T05:04:00.310Z,16.77
2018-12-29T05:07:01.514Z,17.40
2018-12-29T05:13:10.367Z,17.80
2018-12-29T05:16:13.034Z,20.57
2018-12-29T05:19:14.952Z,17.35
2018-12-29T05:22:16.874Z,18.30
2018-12-29T05:25:18.487Z,16.48
2018-12-29T05:28:20.159Z,16.27
2018-12-29T05:31:21.808Z,19.48
2018-12-29T05:34:22.997Z,19.10
2018-12-29T05:37:22.955Z,17.57
2018-12-29T05:50:18.798Z,17.92
2018-12-29T05:53:19.871Z,18.23
2018-12-29T05:56:09.542Z,14.80
2018-12-29T05:58:59.258Z,17.73
2018-12-29T06:02:00.593Z,18.20
2018-12-29T06:05:01.981Z,19.12
2018-12-29T06:07:51.766Z,21.57
2018-12-29T06:10:41.246Z,17.98
2018-12-29T06:13:30.898Z,18.52
2018-12-29T06:16:27.491Z,20.48
2018-12-29T06:19:24.090Z,19.15
2018-12-29T06:22:13.747Z,18.30
2018-12-29T06:28:36.364Z,18.07
2018-12-29T06:31:38.086Z,19.42
2018-12-29T06:34:27.874Z,19.02
2018-12-29T06:37:36.682Z,17.95
2018-12-29T06:40:37.503Z,18.48
2018-12-29T06:43:45.242Z,19.77
2018-12-29T06:46:46.749Z,18.95
2018-12-29T06:49:48.604Z,19.57
2018-12-29T06:52:49.722Z,17.73
2018-12-29T06:55:51.954Z,16.90
2018-12-29T06:58:54.702Z,21.85
2018-12-29T07:01:56.525Z,14.60
2018-12-29T07:04:57.549Z,19.73
2018-12-29T07:07:59.584Z,19.37
2018-12-29T07:14:08.583Z,18.27
2018-12-29T07:17:10.150Z,17.50
2018-12-29T07:20:11.279Z,19.87
2018-12-29T07:23:12.871Z,18.67
2018-12-29T07:26:14.005Z,21.10
2018-12-29T07:29:15.712Z,16.60
2018-12-29T07:32:17.339Z,18.43
2018-12-29T07:35:19.202Z,15.87
2018-12-29T07:38:20.107Z,16.83
2018-12-29T07:41:27.515Z,18.47
2018-12-29T07:44:28.690Z,18.93
2018-12-29T07:47:30.335Z,15.37
2018-12-29T07:50:31.827Z,16.47
2018-12-29T07:53:33.344Z,18.00
2018-12-29T07:56:34.576Z,19.03
2018-12-29T07:59:35.806Z,15.03
2018-12-29T08:02:37.114Z,19.03
2018-12-29T08:05:39.052Z,20.10
2018-12-29T08:08:39.078Z,18.47
2018-12-29T08:15:08.611Z,15.97
2018-12-29T08:18:09.871Z,18.53
2018-12-29T08:21:11.139Z,19.07
2018-12-29T08:24:16.135Z,18.10
2018-12-29T08:27:17.785Z,18.13
2018-12-29T08:30:18.815Z,15.50
2018-12-29T08:33:20.616Z,18.50
2018-12-29T08:36:20.659Z,16.87
2018-12-29T08:39:29.234Z,17.77
2018-12-29T08:45:37.674Z,17.30
2018-12-29T08:48:38.864Z,16.50
2018-12-29T08:51:40.292Z,16.47
2018-12-29T08:54:41.325Z,18.00
2018-12-29T08:57:42.995Z,18.30
2018-12-29T09:00:44.602Z,17.00
2018-12-29T09:03:45.744Z,17.50
2018-12-29T09:06:47.219Z,19.20
2018-12-29T09:09:48.194Z,20.00
2018-12-29T09:12:55.584Z,16.30
2018-12-29T09:15:57.091Z,15.20
2018-12-29T09:18:58.340Z,19.27
2018-12-29T09:22:05.940Z,17.00
2018-12-29T09:25:07.867Z,17.50
2018-12-29T09:28:08.763Z,17.73
2018-12-29T09:31:10.416Z,16.03
2018-12-29T09:34:11.816Z,17.00
2018-12-29T09:37:13.676Z,16.10
2018-12-29T09:40:14.787Z,17.90
2018-12-29T09:43:22.560Z,17.40
2018-12-29T09:46:24.787Z,16.80
2018-12-29T09:49:26.292Z,18.97
2018-12-29T09:52:27.636Z,16.83
2018-12-29T09:55:29.308Z,20.00
2018-12-29T09:58:30.869Z,18.70
2018-12-29T10:01:32.837Z,17.17
2018-12-29T10:04:34.690Z,18.13
2018-12-29T10:07:35.871Z,18.73
2018-12-29T10:10:36.756Z,17.40
2018-12-29T10:13:44.388Z,15.93
2018-12-29T10:16:46.315Z,16.73
2018-12-29T10:19:47.808Z,16.70
2018-12-29T10:25:55.807Z,16.57
2018-12-29T10:28:57.399Z,20.70
2018-12-29T10:31:59.082Z,20.90
2018-12-29T10:35:00.636Z,21.30
2018-12-29T10:38:02.546Z,17.00
2018-12-29T10:41:04.182Z,20.17
2018-12-29T10:44:12.048Z,19.50
2018-12-29T10:47:13.995Z,19.60
2018-12-29T10:50:15.326Z,18.33
2018-12-29T10:53:16.198Z,17.57
2018-12-29T10:56:17.548Z,18.30
2018-12-29T10:59:19.015Z,19.37
2018-12-29T11:02:20.093Z,15.63
2018-12-29T11:05:22.203Z,16.37
2018-12-29T11:08:23.284Z,18.60
2018-12-29T11:11:24.771Z,17.63
2018-12-29T11:14:32.053Z,16.80
2018-12-29T11:17:41.974Z,19.23
2018-12-29T11:20:37.116Z,16.77
2018-12-29T11:23:38.611Z,16.90
2018-12-29T11:26:40.121Z,17.27
2018-12-29T11:29:41.673Z,17.90
2018-12-29T11:32:42.643Z,16.07
2018-12-29T11:35:43.604Z,18.40
2018-12-29T11:38:45.071Z,19.27
2018-12-29T11:41:46.003Z,15.87
2018-12-29T11:44:53.395Z,17.30
2018-12-29T11:47:55.158Z,15.97
2018-12-29T11:50:56.359Z,17.30
2018-12-29T11:53:57.615Z,25.27
2018-12-29T11:56:58.782Z,33.13
2018-12-29T12:00:00.982Z,37.00
2018-12-29T12:03:02.607Z,33.33
2018-12-29T12:06:03.664Z,17.23
2018-12-29T12:09:04.930Z,15.33
2018-12-29T12:12:06.941Z,16.80
2018-12-29T12:15:14.655Z,20.20
2018-12-29T12:18:16.655Z,16.00
2018-12-29T12:21:17.920Z,17.20
2018-12-29T12:24:19.103Z,22.20
2018-12-29T12:27:21.354Z,40.07
2018-12-29T12:30:23.602Z,27.53
2018-12-29T12:33:25.388Z,17.70
2018-12-29T12:36:27.095Z,15.70
2018-12-29T12:39:27.948Z,18.10
2018-12-29T12:42:29.226Z,21.87
2018-12-29T12:45:36.323Z,17.37
2018-12-29T12:48:38.783Z,16.83
2018-12-29T12:51:39.799Z,15.40
2018-12-29T12:54:41.368Z,15.67
2018-12-29T12:57:43.754Z,15.10
2018-12-29T13:00:47.478Z,14.20
2018-12-29T13:03:49.917Z,15.33
2018-12-29T13:06:51.090Z,14.97
2018-12-29T13:09:52.643Z,16.20
2018-12-29T13:12:54.191Z,15.43
2018-12-29T13:16:01.681Z,14.60
2018-12-29T13:19:03.642Z,14.20
2018-12-29T13:22:09.586Z,15.67
2018-12-29T13:25:12.156Z,14.20
2018-12-29T13:28:13.736Z,13.90
2018-12-29T13:31:15.361Z,13.87
2018-12-29T13:34:17.336Z,14.57
2018-12-29T13:37:18.480Z,15.13
2018-12-29T13:40:19.739Z,14.60
2018-12-29T13:43:20.955Z,16.33
2018-12-29T13:46:27.919Z,16.20
2018-12-29T13:49:30.070Z,17.50
2018-12-29T13:52:31.483Z,15.60
2018-12-29T13:55:33.091Z,14.57
2018-12-29T13:58:35.024Z,14.17
2018-12-29T14:01:37.544Z,16.67
2018-12-29T14:04:39.078Z,13.30
2018-12-29T14:07:40.124Z,14.87
2018-12-29T14:10:41.603Z,14.87
2018-12-29T14:13:42.788Z,15.43
2018-12-29T14:20:12.275Z,14.87
2018-12-29T14:23:14.023Z,15.17
2018-12-29T14:26:16.624Z,14.37
2018-12-29T14:29:18.642Z,16.03
2018-12-29T14:32:20.496Z,14.50
2018-12-29T14:35:22.147Z,14.20
2018-12-29T14:38:23.142Z,14.37
2018-12-29T14:41:24.043Z,13.63
2018-12-29T14:44:30.902Z,14.10
2018-12-29T14:47:42.330Z,13.70
2018-12-29T14:54:03.353Z,14.57
2018-12-29T14:59:53.950Z,14.60
2018-12-29T15:02:59.726Z,14.70
2018-12-29T15:08:48.096Z,15.80
2018-12-29T15:14:41.383Z,15.30
2018-12-29T15:17:49.087Z,15.47
2018-12-29T15:20:57.032Z,14.23
2018-12-29T15:23:58.529Z,15.97
2018-12-29T15:27:00.719Z,15.57
2018-12-29T15:30:01.995Z,13.00
2018-12-29T15:33:04.227Z,13.00
2018-12-29T15:36:05.721Z,13.00
2018-12-29T15:39:07.731Z,16.60
2018-12-29T15:42:09.307Z,14.87
2018-12-29T15:45:10.691Z,13.37
2018-12-29T15:48:17.879Z,14.53
2018-12-29T15:51:20.229Z,16.90
2018-12-29T15:54:21.682Z,14.10
2018-12-29T15:57:25.816Z,14.70
2018-12-29T16:00:27.376Z,15.70
2018-12-29T16:03:29.531Z,12.80
2018-12-29T16:06:31.095Z,15.10
2018-12-29T16:09:32.955Z,13.90
2018-12-29T16:12:34.618Z,14.00
2018-12-29T16:15:35.235Z,13.87
2018-12-29T16:31:52.163Z,14.63
2018-12-29T16:34:54.149Z,15.50
2018-12-29T16:37:56.109Z,15.50
2018-12-29T16:40:57.970Z,13.60
2018-12-29T16:44:00.606Z,12.90
2018-12-29T16:47:01.939Z,15.13
2018-12-29T16:53:10.319Z,14.53
2018-12-29T16:56:11.743Z,14.83
2018-12-29T16:59:14.710Z,14.80
2018-12-29T17:02:17.287Z,16.30
2018-12-29T17:05:19.747Z,15.63
2018-12-29T17:08:21.743Z,15.73
2018-12-29T17:11:23.080Z,15.50
2018-12-29T17:14:26.559Z,15.80
2018-12-29T17:17:28.254Z,16.00
2018-12-29T17:23:36.918Z,15.40
2018-12-29T17:26:38.475Z,16.03
2018-12-29T17:29:40.305Z,14.93
2018-12-29T17:32:42.290Z,12.83
2018-12-29T17:35:43.747Z,16.70
2018-12-29T17:38:45.430Z,16.63
2018-12-29T17:41:47.418Z,14.67
2018-12-29T17:44:49.375Z,15.73
2018-12-29T17:47:51.895Z,14.77
2018-12-29T17:54:00.426Z,15.57
2018-12-29T17:57:02.458Z,15.33
2018-12-29T18:00:03.071Z,16.90
2018-12-29T18:06:39.351Z,15.43
2018-12-29T18:09:40.880Z,15.80
2018-12-29T18:12:42.174Z,16.17
2018-12-29T18:15:44.277Z,13.60
2018-12-29T18:18:46.691Z,14.00
2018-12-29T18:24:55.539Z,13.50
2018-12-29T18:27:57.310Z,14.60
2018-12-29T18:30:58.986Z,14.60
2018-12-29T18:34:00.763Z,15.77
2018-12-29T18:37:02.300Z,13.30
2018-12-29T18:40:03.231Z,14.27
2018-12-29T18:43:05.070Z,15.40
2018-12-29T18:46:06.775Z,15.07
2018-12-29T18:49:08.454Z,14.00
2018-12-29T18:55:16.851Z,16.90
2018-12-29T18:58:18.535Z,14.50
2018-12-29T19:01:19.159Z,15.37
2018-12-29T19:07:54.181Z,17.20
2018-12-29T19:10:55.894Z,16.53
2018-12-29T19:13:58.859Z,15.47
2018-12-29T19:17:01.133Z,15.80
2018-12-29T19:20:03.262Z,16.30
2018-12-29T19:26:11.123Z,17.43
2018-12-29T19:29:13.767Z,17.13
2018-12-29T19:32:15.719Z,14.83
2018-12-29T19:35:18.163Z,14.73
2018-12-29T19:38:19.647Z,14.80
2018-12-29T19:41:21.640Z,14.37
2018-12-29T19:44:24.591Z,13.40
2018-12-29T19:47:26.222Z,16.37
2018-12-29T19:50:27.471Z,16.47
2018-12-29T19:56:36.498Z,16.83
2018-12-29T19:59:38.771Z,14.13
2018-12-29T20:05:47.106Z,14.80
2018-12-29T20:08:48.383Z,14.43
2018-12-29T20:11:50.225Z,14.20
2018-12-29T20:14:52.021Z,14.37
2018-12-29T20:17:54.175Z,13.23
2018-12-29T20:20:55.072Z,13.10
2018-12-29T20:27:03.074Z,11.17
2018-12-29T20:30:05.516Z,11.00
2018-12-29T20:33:06.832Z,11.80
2018-12-29T20:36:08.761Z,12.33
2018-12-29T20:39:09.880Z,13.20
2018-12-29T20:42:10.909Z,9.93
2018-12-29T20:45:13.175Z,10.60
2018-12-29T20:48:14.591Z,9.57
2018-12-29T20:51:16.260Z,11.27
2018-12-29T20:57:27.770Z,12.67
2018-12-29T21:00:29.458Z,10.53
2018-12-29T21:03:30.939Z,11.03
2018-12-29T21:06:32.755Z,11.10
2018-12-29T21:09:34.003Z,11.23
2018-12-29T21:12:35.791Z,12.50
2018-12-29T21:15:37.571Z,10.17
2018-12-29T21:18:39.166Z,11.90
2018-12-29T21:21:40.577Z,10.53
2018-12-29T21:27:49.319Z,9.90
2018-12-29T21:30:51.487Z,9.13
2018-12-29T21:33:52.146Z,9.60
2018-12-29T21:40:27.339Z,10.37
2018-12-29T21:43:28.663Z,10.03
2018-12-29T21:46:30.559Z,8.60
2018-12-29T21:49:32.327Z,8.53
2018-12-29T21:52:33.522Z,9.07
2018-12-29T21:58:42.527Z,8.80
2018-12-29T22:01:45.071Z,8.97
2018-12-29T22:04:46.770Z,8.30
2018-12-29T22:07:49.481Z,8.80
2018-12-29T22:10:50.738Z,8.13
2018-12-29T22:13:52.944Z,6.97
2018-12-29T22:16:54.774Z,6.90
2018-12-29T22:19:56.670Z,7.40
2018-12-29T22:23:04.367Z,9.07
2018-12-29T22:29:12.383Z,7.77
2018-12-29T22:32:14.916Z,7.93
2018-12-29T22:35:16.575Z,7.87
2018-12-29T22:38:17.589Z,8.07
2018-12-29T22:41:18.010Z,7.47
2018-12-29T22:44:18.136Z,6.50
2018-12-29T22:47:27.322Z,6.40
2018-12-29T22:50:29.081Z,5.80
2018-12-29T22:53:30.899Z,7.87
2018-12-29T22:56:38.379Z,6.30
2018-12-29T22:59:39.723Z,6.50
2018-12-29T23:02:29.674Z,6.37
2018-12-29T23:12:06.458Z,6.57
2018-12-29T23:15:08.426Z,6.77
2018-12-29T23:18:09.598Z,7.17
2018-12-29T23:20:59.736Z,6.87
2018-12-29T23:30:23.122Z,7.03
2018-12-29T23:33:25.098Z,5.93
2018-12-29T23:36:26.180Z,6.60
2018-12-29T23:39:27.456Z,7.50
2018-12-29T23:42:28.754Z,7.70
2018-12-29T23:45:30.123Z,8.47
2018-12-29T23:48:31.237Z,9.80
2018-12-29T23:51:32.710Z,9.13
2018-12-29T23:54:34.336Z,10.03
2018-12-29T23:57:41.373Z,9.63
